Portada
METAR-TAF:

METAR-TAF

Aeroports :

Ivalo, Finlàndia

latitud: 68-37N, longitud: 027-25E, altitud: 147 m

Observació

L'informe es va fer fa 24 minuts, a les 00:50 UTC
Vent 8 kt del Oest
Temperatura -10°C
Humitat 85%
Pressió 1014 hPa
Visibilitat 10 km o més
sense núvols per sota de 1500 mi sense presència de cumulonimbus.

METAR: EFIV 300050Z AUTO 26008KT CAVOK M10/M12 Q1014

Hora: 04:14 (01:14 UTC)

Pronòstic

L'informe es va fer fa 10 hores i 45 minuts, a les 14:29 UTC
Pronòstic vàlid del 29 a les 15 UTC al 29 a les 18 UTC
Vent 12 kt del Oest/Nord-Oest
Visibilitat 10 km o més
sense núvols per sota de 1500 mi sense presència de cumulonimbus.

TAF: EFIV 291429Z 2915/2918 29012KT CAVOK

Observacions i pronòstics meteorològics de més de 4000 aeroports (METAR i TAF).

Les estacions disponibles són els punts grocs i vermells al mapa.

Posi el ratolí al punt desitjat per veure el nom de l'estació.

Feu clic per veure les observacions i els pronòstics meteorològics.

Per canviar el mapa: feu clic els botons verds amb una creu de color negre per apropar; al botó verd amb un guió per allunyar la imatge; o en les fletxes verdes per a mapes adjacents.


METAR-TAF: